Terminal Aerodrome Forecast
Issued by NWS

Home | Current Version | Previous Version | Text Only | Print | Product List | Glossary On
Versions: 1 2 3 4 5 6 7 8 9 10 11 12 13 14 15 16 17 18 19 20 21 22 23 24 25 26
115
FTUS45 KTFX 161356 AAA
TAFHLN
TAF AMD
KHLN 161356Z 1614/1712 VRB05KT 4SM -SN BR SCT005 OVC025
      TEMPO 1614/1618 1/2SM FZFG OVC003
     FM161800 VRB04KT 5SM BR VCSH BKN025 OVC050
      TEMPO 1621/1622 2SM -SN OVC015
     FM162300 VRB03KT P6SM BKN035 BKN100
     FM170000 VRB04KT P6SM FEW050 SCT110=

USA.gov is the U.S. government's official web portal to all federal, state and local government web resources and services.